Phyllis Lauder — WDC6302 — position and weather

sailwx.info

Track history (hours):
 
Tides and Currents Weather Stations Pressure Air Temp Water Temp Dewpoint Dewpoint Depression Visibility Wind Speed Wind Dir Waves Ship Positions

Phyllis Lauder

More information available from US FCC via Universal Licensing System and Coast Guard Vessel Documentation Center.

Last reported at 2014-Jun-22 15:28 UTC. Time now 2014-Sep-03 02:13 UTC.
Position N 30°04' W 090°53'.
Warning: this ship's position is months out of date.

Length 46 m; draft 3 m.

Type: Towing. MMSI: 367054240.

Date/timePositionNaut miles runAvg speedWind from/ knotsBaromVisibWave heightAir tempDewpointWater temp
2014-Jun-22 15:28N 30°04' W 090°53'4 4.9
2014-Jun-22 14:32N 30°00' W 090°50'5 5.2
2014-Jun-22 13:33N 30°01' W 090°44'3 3.0
2014-Jun-22 12:33N 30°02' W 090°41'0 0.0
2014-Jun-22 11:33N 30°02' W 090°41'3 2.6
2014-Jun-22 10:33N 30°03' W 090°38'0 0.0
2014-Jun-22 09:33N 30°03' W 090°38'0 0.0
2014-Jun-22 08:33N 30°03' W 090°38'1 1.0
2014-Jun-22 07:33N 30°02' W 090°37'4 3.8
2014-Jun-22 06:33N 30°03' W 090°33'2 1.8
2014-Jun-22 05:33N 30°03' W 090°31'2 2.4
2014-Jun-22 04:33N 30°03' W 090°28'0 0.0
2014-Jun-22 03:33N 30°03' W 090°28'0 0.0
2014-Jun-22 02:33N 30°03' W 090°28'0 0.0
2014-Jun-22 01:33N 30°03' W 090°28'0 0.4
2014-Jun-22 00:33N 30°02' W 090°29'1 0.8
2014-Jun-21 23:33N 30°01' W 090°29'0 0.0
2014-Jun-21 21:33N 30°01' W 090°29'0 0.1
2014-Jun-21 20:33N 30°01' W 090°29'2 1.9
2014-Jun-21 19:33N 30°03' W 090°29'4 4.1
2014-Jun-21 18:33N 30°03' W 090°34'0 0.0
2014-Jun-21 17:33N 30°03' W 090°34'0 0.0
2014-Jun-21 16:33N 30°03' W 090°34'0 0.0
2014-Jun-21 15:33N 30°03' W 090°34'0 0.0
2014-Jun-21 14:33N 30°03' W 090°34'0 0.1
2014-Jun-21 13:33N 30°03' W 090°34'7 6.9
2014-Jun-21 12:30N 30°01' W 090°42'7 7.0
2014-Jun-21 11:33N 29°60' W 090°50'5 4.2
2014-Jun-21 10:27N 30°04' W 090°51'0 0.0
2014-Jun-21 09:31N 30°04' W 090°51'0 0.0
2014-Jun-21 08:33N 30°04' W 090°51'0 0.0
2014-Jun-21 07:23N 30°04' W 090°51'0 0.0
2014-Jun-21 06:26N 30°04' W 090°51'0 0.0
2014-Jun-21 05:32N 30°04' W 090°51'0 0.0
2014-Jun-21 04:33N 30°04' W 090°51'  
Track history (hours):
 
Tides and Currents Weather Stations Pressure Air Temp Water Temp Dewpoint Dewpoint Depression Visibility Wind Speed Wind Dir Waves Ship Positions

Phyllis Lauder

More information available from US FCC via Universal Licensing System and Coast Guard Vessel Documentation Center.

Last reported at 2014-Jun-22 15:28 UTC. Time now 2014-Sep-03 02:13 UTC.
Position N 30°04' W 090°53'.
Warning: this ship's position is months out of date.

Length 46 m; draft 3 m.

Type: Towing. MMSI: 367054240.

Date/timePositionNaut miles runAvg speedWind from/ knotsBaromVisibWave heightAir tempDewpointWater temp
2014-Jun-22 15:28N 30°04' W 090°53'4 4.9
2014-Jun-22 14:32N 30°00' W 090°50'5 5.2
2014-Jun-22 13:33N 30°01' W 090°44'3 3.0
2014-Jun-22 12:33N 30°02' W 090°41'0 0.0
2014-Jun-22 11:33N 30°02' W 090°41'3 2.6
2014-Jun-22 10:33N 30°03' W 090°38'0 0.0
2014-Jun-22 09:33N 30°03' W 090°38'0 0.0
2014-Jun-22 08:33N 30°03' W 090°38'1 1.0
2014-Jun-22 07:33N 30°02' W 090°37'4 3.8
2014-Jun-22 06:33N 30°03' W 090°33'2 1.8
2014-Jun-22 05:33N 30°03' W 090°31'2 2.4
2014-Jun-22 04:33N 30°03' W 090°28'0 0.0
2014-Jun-22 03:33N 30°03' W 090°28'0 0.0
2014-Jun-22 02:33N 30°03' W 090°28'0 0.0
2014-Jun-22 01:33N 30°03' W 090°28'0 0.4
2014-Jun-22 00:33N 30°02' W 090°29'1 0.8
2014-Jun-21 23:33N 30°01' W 090°29'0 0.0
2014-Jun-21 21:33N 30°01' W 090°29'0 0.1
2014-Jun-21 20:33N 30°01' W 090°29'2 1.9
2014-Jun-21 19:33N 30°03' W 090°29'4 4.1
2014-Jun-21 18:33N 30°03' W 090°34'0 0.0
2014-Jun-21 17:33N 30°03' W 090°34'0 0.0
2014-Jun-21 16:33N 30°03' W 090°34'0 0.0
2014-Jun-21 15:33N 30°03' W 090°34'0 0.0
2014-Jun-21 14:33N 30°03' W 090°34'0 0.1
2014-Jun-21 13:33N 30°03' W 090°34'7 6.9
2014-Jun-21 12:30N 30°01' W 090°42'7 7.0
2014-Jun-21 11:33N 29°60' W 090°50'5 4.2
2014-Jun-21 10:27N 30°04' W 090°51'0 0.0
2014-Jun-21 09:31N 30°04' W 090°51'0 0.0
2014-Jun-21 08:33N 30°04' W 090°51'0 0.0
2014-Jun-21 07:23N 30°04' W 090°51'0 0.0
2014-Jun-21 06:26N 30°04' W 090°51'0 0.0
2014-Jun-21 05:32N 30°04' W 090°51'0 0.0
2014-Jun-21 04:33N 30°04' W 090°51'  

Dump ship's entire track history